Time;durP1;ratioP1;P1;durP2;ratioP2;P2;SDS_P1;SDS_P2;PMS_P1;PMS_P2;Temp;Humidity;BMP_temperature;BMP_pressure;BME280_temperature;BME280_humidity;BME280_pressure;Samples;Min_cycle;Max_cycle;Signal;HPM_P1;HPM_P2
2022/11/29 00:01:30;;;;;;;20.58;6.88;;;;;;;-0.63;100.00;100796.88;5153350;27;20100;-46
2022/11/29 00:03:57;;;;;;;18.05;6.68;;;;;;;-0.66;100.00;100794.72;5153464;27;20050;-47
2022/11/29 00:06:26;;;;;;;15.60;6.10;;;;;;;-0.31;100.00;100778.94;5153181;27;20074;-46
2022/11/29 00:08:53;;;;;;;20.10;5.93;;;;;;;-0.58;100.00;100795.09;5153306;27;20046;-48
2022/11/29 00:14:04;;;;;;;20.30;7.10;;;;;;;-0.17;100.00;100787.44;5152161;27;20425;-46
2022/11/29 00:16:30;;;;;;;17.33;6.28;;;;;;;-0.36;100.00;100805.06;5152847;27;20082;-46
2022/11/29 00:18:56;;;;;;;14.25;6.55;;;;;;;-0.27;100.00;100790.03;5153179;27;20051;-46
2022/11/29 00:21:22;;;;;;;18.98;6.25;;;;;;;-0.34;100.00;100790.22;5152957;27;20049;-45
2022/11/29 00:23:49;;;;;;;17.95;6.40;;;;;;;-0.61;100.00;100797.47;5152846;27;20099;-46
2022/11/29 00:26:15;;;;;;;19.30;6.65;;;;;;;-0.37;100.00;100777.25;5152879;27;20583;-44
2022/11/29 00:28:42;;;;;;;17.85;6.50;;;;;;;-0.31;100.00;100778.94;5152793;27;20043;-46
2022/11/29 00:31:14;;;;;;;19.05;6.25;;;;;;;-0.25;100.00;100783.34;5153036;27;20424;-44
2022/11/29 00:33:41;;;;;;;15.20;5.32;;;;;;;-0.48;100.00;100791.69;5152840;27;20055;-45
2022/11/29 00:36:07;;;;;;;14.85;5.65;;;;;;;-0.28;100.00;100783.84;5152750;27;20091;-48
2022/11/29 00:38:33;;;;;;;15.60;5.60;;;;;;;-0.20;100.00;100779.91;5152776;27;20085;-44
2022/11/29 00:41:00;;;;;;;13.93;6.03;;;;;;;-0.07;100.00;100787.59;5152712;27;20051;-47
2022/11/29 00:43:26;;;;;;;17.95;6.63;;;;;;;-0.14;100.00;100803.13;5152847;27;20138;-44
2022/11/29 00:45:52;;;;;;;12.73;5.18;;;;;;;-0.49;100.00;100815.13;5153004;27;20056;-44
2022/11/29 00:48:19;;;;;;;11.57;4.82;;;;;;;-0.19;100.00;100792.28;5152819;27;20054;-44
2022/11/29 00:50:46;;;;;;;16.25;5.65;;;;;;;-0.15;100.00;100795.31;5152589;27;20057;-45
2022/11/29 00:53:12;;;;;;;9.63;4.05;;;;;;;-0.54;100.00;100806.97;5152606;27;20171;-44
2022/11/29 00:55:38;;;;;;;18.35;5.30;;;;;;;-0.48;100.00;100789.00;5152910;27;20534;-44
2022/11/29 00:58:05;;;;;;;10.02;4.45;;;;;;;0.01;100.00;100775.50;5152536;27;20146;-44
2022/11/29 01:00:32;;;;;;;10.85;4.97;;;;;;;-0.17;100.00;100792.03;5151940;27;20130;-44
2022/11/29 01:02:59;;;;;;;18.08;5.22;;;;;;;-0.06;100.00;100793.78;5152252;27;20067;-44
2022/11/29 01:05:25;;;;;;;11.88;4.85;;;;;;;-0.28;100.00;100788.41;5152260;27;20046;-44
2022/11/29 01:07:52;;;;;;;11.10;5.35;;;;;;;-0.12;100.00;100789.41;5152074;27;20424;-45
2022/11/29 01:10:18;;;;;;;10.35;4.63;;;;;;;-0.34;100.00;100806.41;5152203;27;20047;-44
2022/11/29 01:12:45;;;;;;;13.88;5.10;;;;;;;-0.08;100.00;100791.31;5152485;27;20098;-44
2022/11/29 01:15:11;;;;;;;10.95;5.18;;;;;;;-0.10;100.00;100798.03;5152346;27;20050;-44
2022/11/29 01:17:39;;;;;;;12.73;5.30;;;;;;;-0.16;100.00;100810.66;5152431;27;20047;-44
2022/11/29 01:20:07;;;;;;;15.98;5.20;;;;;;;0.08;100.00;100813.06;5152650;27;20578;-44
2022/11/29 01:22:35;;;;;;;12.95;4.30;;;;;;;0.04;100.00;100817.34;5152006;27;20051;-44
2022/11/29 01:25:01;;;;;;;12.85;5.15;;;;;;;0.10;100.00;100821.69;5151789;27;20471;-44
2022/11/29 01:27:29;;;;;;;8.80;4.80;;;;;;;0.26;100.00;100819.97;5152078;27;20429;-44
2022/11/29 01:29:55;;;;;;;9.80;4.53;;;;;;;-0.09;100.00;100827.44;5151910;27;20196;-45
2022/11/29 01:32:21;;;;;;;10.90;4.80;;;;;;;0.15;100.00;100819.06;5152030;27;20089;-45
2022/11/29 01:34:47;;;;;;;10.00;4.13;;;;;;;0.31;100.00;100828.13;5151947;27;20103;-44
2022/11/29 01:37:14;;;;;;;11.25;5.13;;;;;;;0.02;100.00;100852.63;5152120;27;20539;-44
2022/11/29 01:39:41;;;;;;;10.38;4.75;;;;;;;0.10;100.00;100844.09;5151867;27;20137;-44
2022/11/29 01:42:10;;;;;;;8.02;4.20;;;;;;;0.13;100.00;100821.19;5152048;27;20047;-45
2022/11/29 01:45:07;;;;;;;9.00;4.35;;;;;;;0.11;100.00;100828.72;5151844;27;20042;-44
2022/11/29 01:47:37;;;;;;;9.18;4.35;;;;;;;0.06;100.00;100836.75;5151821;27;20047;-46
2022/11/29 01:50:04;;;;;;;11.48;4.53;;;;;;;0.10;100.00;100846.81;5151548;27;20042;-48
2022/11/29 01:52:32;;;;;;;12.27;4.85;;;;;;;0.08;100.00;100843.53;5151454;27;20070;-44
2022/11/29 01:55:03;;;;;;;7.28;4.18;;;;;;;0.18;100.00;100840.94;5151814;27;20049;-44
2022/11/29 01:57:30;;;;;;;10.77;4.65;;;;;;;0.33;100.00;100840.25;5151533;27;20122;-45
2022/11/29 02:00:01;;;;;;;9.07;4.05;;;;;;;0.18;100.00;100845.53;5151625;27;20137;-45
2022/11/29 02:02:31;;;;;;;8.30;4.03;;;;;;;0.46;100.00;100856.03;5151649;27;20050;-44
2022/11/29 02:04:59;;;;;;;10.57;4.80;;;;;;;0.56;100.00;100862.59;5151422;27;20058;-45
2022/11/29 02:07:26;;;;;;;9.13;4.82;;;;;;;0.55;100.00;100880.66;5151377;27;20051;-44
2022/11/29 02:09:52;;;;;;;11.70;4.80;;;;;;;0.46;100.00;100893.81;5151274;27;20601;-44
2022/11/29 02:12:28;;;;;;;7.07;3.35;;;;;;;0.05;100.00;100899.84;5151252;27;20049;-45
2022/11/29 02:15:06;;;;;;;9.05;4.32;;;;;;;0.10;100.00;100889.94;5154935;27;20050;-44
2022/11/29 02:17:43;;;;;;;8.05;3.95;;;;;;;0.04;100.00;100873.97;5155198;27;20481;-44
2022/11/29 02:20:55;;;;;;;8.35;3.80;;;;;;;0.31;100.00;100866.69;5155065;27;20103;-45
2022/11/29 02:23:40;;;;;;;8.93;4.38;;;;;;;-0.02;100.00;100871.19;5155041;27;20051;-44
2022/11/29 02:26:20;;;;;;;8.43;3.88;;;;;;;0.23;100.00;100837.47;5155039;27;20050;-44
2022/11/29 02:29:24;;;;;;;9.52;4.15;;;;;;;0.43;100.00;100839.53;5154814;27;20054;-44
2022/11/29 02:32:25;;;;;;;9.80;3.15;;;;;;;0.11;100.00;100843.03;5155222;27;20051;-44
2022/11/29 02:34:58;;;;;;;9.23;4.13;;;;;;;0.39;100.00;100825.75;5154667;27;20112;-44
2022/11/29 02:37:47;;;;;;;7.50;3.20;;;;;;;0.23;100.00;100830.22;5154665;27;20049;-44
2022/11/29 02:40:28;;;;;;;9.50;3.95;;;;;;;0.26;100.00;100814.56;5154844;27;20276;-44
2022/11/29 02:43:33;;;;;;;6.53;3.65;;;;;;;0.43;100.00;100826.03;5154567;27;20110;-44
2022/11/29 02:46:11;;;;;;;10.57;3.42;;;;;;;0.38;100.00;100831.41;5117233;27;20470;-44
2022/11/29 02:48:58;;;;;;;7.55;3.88;;;;;;;0.39;100.00;100833.03;5154627;27;20050;-44
2022/11/29 02:51:35;;;;;;;7.30;3.88;;;;;;;0.26;100.00;100845.03;5154522;27;20095;-43
2022/11/29 02:54:08;;;;;;;7.13;3.72;;;;;;;0.29;100.00;100825.66;5154535;27;20513;-45
2022/11/29 02:56:41;;;;;;;4.90;2.83;;;;;;;0.01;100.00;100818.66;5154382;27;20043;-44
2022/11/29 02:59:15;;;;;;;5.55;3.20;;;;;;;0.44;100.00;100804.22;5154502;27;20150;-47
2022/11/29 03:01:51;;;;;;;5.55;3.30;;;;;;;0.44;100.00;100812.31;5154072;27;20133;-44
2022/11/29 03:04:30;;;;;;;6.97;4.03;;;;;;;0.20;100.00;100819.94;5153926;27;20102;-45
2022/11/29 03:07:04;;;;;;;8.85;4.13;;;;;;;0.46;100.00;100815.56;5154373;27;20050;-44
2022/11/29 03:09:38;;;;;;;6.63;3.63;;;;;;;0.01;100.00;100820.53;5153948;27;20533;-44
2022/11/29 03:12:17;;;;;;;6.57;3.97;;;;;;;0.45;100.00;100794.25;5154688;27;20576;-45
2022/11/29 03:14:55;;;;;;;6.13;3.70;;;;;;;0.28;100.00;100788.97;5154019;27;20398;-44
2022/11/29 03:17:30;;;;;;;9.15;5.07;;;;;;;0.57;100.00;100778.69;5153944;27;20497;-46
2022/11/29 03:20:13;;;;;;;9.40;3.97;;;;;;;0.41;100.00;100793.94;5153991;27;20110;-44
2022/11/29 03:22:47;;;;;;;7.57;3.67;;;;;;;0.35;100.00;100803.06;5153811;27;20050;-44
2022/11/29 03:25:20;;;;;;;8.45;4.05;;;;;;;0.48;100.00;100785.63;5153515;27;20055;-44
2022/11/29 03:27:55;;;;;;;13.07;4.82;;;;;;;0.55;100.00;100778.13;5153914;27;20043;-44
2022/11/29 03:30:21;;;;;;;12.65;5.32;;;;;;;0.65;100.00;100790.88;5153810;27;20102;-47
2022/11/29 03:32:55;;;;;;;11.05;5.10;;;;;;;0.52;100.00;100792.13;5153893;27;20050;-46
2022/11/29 03:35:27;;;;;;;9.85;4.22;;;;;;;0.29;100.00;100792.47;5153798;27;20425;-46
2022/11/29 03:38:03;;;;;;;9.43;4.30;;;;;;;0.45;100.00;100781.56;5153549;27;20086;-46
2022/11/29 03:40:38;;;;;;;15.18;5.05;;;;;;;0.42;100.00;100781.25;5153775;27;20059;-49
2022/11/29 03:43:09;;;;;;;11.73;5.70;;;;;;;0.31;100.00;100779.56;5153699;27;20050;-46
2022/11/29 03:45:46;;;;;;;9.73;5.05;;;;;;;0.60;100.00;100770.06;5153641;27;20057;-46
2022/11/29 03:48:18;;;;;;;11.63;5.28;;;;;;;0.65;100.00;100761.19;5153604;27;20537;-46
2022/11/29 03:50:51;;;;;;;11.98;5.65;;;;;;;0.45;100.00;100764.56;5153615;27;20050;-46
2022/11/29 03:53:30;;;;;;;12.20;5.25;;;;;;;0.64;100.00;100751.47;5153642;27;20047;-46
2022/11/29 03:56:00;;;;;;;12.10;4.95;;;;;;;0.66;100.00;100757.41;5153228;27;20486;-46
2022/11/29 03:58:43;;;;;;;9.38;4.95;;;;;;;0.49;100.00;100745.97;5153260;27;20090;-46
2022/11/29 04:01:33;;;;;;;11.13;5.13;;;;;;;0.50;100.00;100742.19;5153490;27;20055;-46
2022/11/29 04:04:22;;;;;;;10.65;4.78;;;;;;;0.39;100.00;100744.81;5153330;27;20466;-46
2022/11/29 04:07:04;;;;;;;10.88;5.63;;;;;;;0.42;100.00;100740.78;5150352;27;20094;-47
2022/11/29 04:09:55;;;;;;;13.15;4.95;;;;;;;0.43;100.00;100737.84;5153508;27;20046;-47
2022/11/29 04:12:53;;;;;;;9.90;5.15;;;;;;;0.47;100.00;100743.53;5153276;27;20047;-46
2022/11/29 04:15:52;;;;;;;9.88;5.03;;;;;;;0.11;100.00;100737.03;5139303;27;20133;-46
2022/11/29 04:18:50;;;;;;;11.15;4.60;;;;;;;0.36;100.00;100712.94;5152983;27;20062;-47
2022/11/29 04:21:50;;;;;;;12.52;5.03;;;;;;;0.62;100.00;100707.72;5152379;27;20137;-46
2022/11/29 04:24:51;;;;;;;9.60;4.70;;;;;;;0.45;100.00;100724.88;5153106;27;20054;-49
2022/11/29 04:27:37;;;;;;;7.47;4.43;;;;;;;0.40;100.00;100722.16;5152707;27;20137;-47
2022/11/29 04:30:11;;;;;;;9.98;5.28;;;;;;;0.37;100.00;100716.47;5152722;27;20050;-46
2022/11/29 04:33:04;;;;;;;9.65;4.07;;;;;;;0.29;100.00;100708.84;5152773;27;20043;-46
2022/11/29 04:35:41;;;;;;;8.63;4.43;;;;;;;0.41;100.00;100714.88;5151929;27;20106;-46
2022/11/29 04:38:32;;;;;;;14.55;4.63;;;;;;;0.49;100.00;100717.09;5152910;27;20058;-46
2022/11/29 04:41:19;;;;;;;6.95;4.07;;;;;;;0.27;100.00;100714.53;5117855;27;20157;-46
2022/11/29 04:44:10;;;;;;;6.20;3.70;;;;;;;0.45;100.00;100711.41;5152485;27;20055;-46
2022/11/29 04:47:04;;;;;;;8.90;3.85;;;;;;;0.38;100.00;100718.91;5152891;27;20053;-46
2022/11/29 04:49:55;;;;;;;9.00;4.10;;;;;;;0.39;100.00;100725.91;5149780;27;20046;-47
2022/11/29 04:52:43;;;;;;;7.75;3.65;;;;;;;0.37;100.00;100730.78;5152443;27;20047;-46
2022/11/29 04:55:18;;;;;;;4.55;3.08;;;;;;;0.39;100.00;100738.59;5152335;27;20174;-46
2022/11/29 04:57:52;;;;;;;10.82;3.25;;;;;;;0.32;100.00;100728.03;5152607;27;20533;-46
2022/11/29 05:00:21;;;;;;;6.28;3.03;;;;;;;0.28;100.00;100729.63;5152328;27;20042;-47
2022/11/29 05:02:53;;;;;;;8.10;3.72;;;;;;;0.36;100.00;100718.34;5152070;27;20092;-47
2022/11/29 05:05:30;;;;;;;5.35;3.47;;;;;;;0.24;100.00;100725.81;5152530;27;20089;-46
2022/11/29 05:08:11;;;;;;;8.63;3.20;;;;;;;0.38;100.00;100702.72;5152197;27;20153;-46
2022/11/29 05:10:44;;;;;;;4.93;3.00;;;;;;;0.29;100.00;100706.97;5152033;27;20133;-46
2022/11/29 05:13:20;;;;;;;6.75;3.28;;;;;;;0.41;100.00;100699.50;5152327;27;20114;-50
2022/11/29 05:16:14;;;;;;;9.32;3.28;;;;;;;0.53;100.00;100709.28;5151863;27;20169;-50
2022/11/29 05:19:02;;;;;;;10.05;3.03;;;;;;;0.46;100.00;100723.00;5152015;27;20623;-50
2022/11/29 05:21:41;;;;;;;5.63;3.10;;;;;;;0.52;100.00;100732.75;5151788;27;20050;-52
2022/11/29 05:24:21;;;;;;;7.95;3.65;;;;;;;0.45;100.00;100732.97;5151895;27;20532;-50
2022/11/29 05:26:54;;;;;;;6.18;3.60;;;;;;;0.63;100.00;100723.69;5151731;27;20509;-52
2022/11/29 05:29:29;;;;;;;6.00;2.88;;;;;;;0.23;100.00;100748.44;5151298;27;20555;-54
2022/11/29 05:32:11;;;;;;;5.28;3.03;;;;;;;0.54;100.00;100752.22;5152020;27;20046;-54
2022/11/29 05:35:07;;;;;;;4.82;2.97;;;;;;;0.37;100.00;100751.56;5151659;27;20055;-53
2022/11/29 05:37:42;;;;;;;7.78;3.17;;;;;;;0.49;100.00;100743.25;5151652;27;20051;-52
2022/11/29 05:40:32;;;;;;;6.00;2.78;;;;;;;0.49;100.00;100759.44;5152112;27;20623;-51
2022/11/29 05:43:21;;;;;;;8.52;3.20;;;;;;;0.46;100.00;100760.78;5151551;27;20050;-51
2022/11/29 05:45:54;;;;;;;4.13;2.50;;;;;;;0.34;100.00;100766.38;5151991;27;20042;-52
2022/11/29 05:48:27;;;;;;;7.10;3.50;;;;;;;0.56;100.00;100755.44;5150996;27;20106;-51
2022/11/29 05:51:04;;;;;;;3.83;2.33;;;;;;;0.39;100.00;100777.19;5151465;27;20513;-50
2022/11/29 05:53:42;;;;;;;6.03;2.58;;;;;;;0.37;100.00;100776.66;5151421;27;20420;-51
2022/11/29 05:56:14;;;;;;;4.20;2.42;;;;;;;0.46;100.00;100787.75;5151575;27;20043;-52
2022/11/29 05:58:49;;;;;;;4.07;1.80;;;;;;;0.66;100.00;100787.91;5151779;27;20466;-50
2022/11/29 06:01:22;;;;;;;4.13;2.40;;;;;;;0.45;100.00;100802.31;5151357;27;20077;-52
2022/11/29 06:03:58;;;;;;;2.55;2.13;;;;;;;0.55;100.00;100797.00;5151554;27;20141;-52
2022/11/29 06:06:35;;;;;;;2.55;2.35;;;;;;;0.59;100.00;100811.59;5151162;27;20053;-50
2022/11/29 06:09:11;;;;;;;14.43;3.20;;;;;;;0.76;100.00;100816.06;5151107;27;20142;-52
2022/11/29 06:11:44;;;;;;;4.15;2.05;;;;;;;0.40;100.00;100838.19;5151540;27;20057;-53
2022/11/29 06:14:29;;;;;;;4.25;2.50;;;;;;;0.56;100.00;100839.13;5151229;27;20081;-53
2022/11/29 06:17:25;;;;;;;4.93;2.38;;;;;;;0.35;100.00;100848.91;5151268;27;20054;-54
2022/11/29 06:20:14;;;;;;;4.18;3.20;;;;;;;0.53;100.00;100839.63;5150979;27;20051;-54
2022/11/29 06:22:57;;;;;;;6.28;2.33;;;;;;;0.26;100.00;100842.34;5150648;27;20050;-56
2022/11/29 06:25:34;;;;;;;3.90;2.47;;;;;;;0.34;100.00;100835.69;5151132;27;20046;-53
2022/11/29 06:28:21;;;;;;;3.53;2.60;;;;;;;0.80;100.00;100831.50;5150885;27;20053;-55
2022/11/29 06:30:59;;;;;;;6.80;2.92;;;;;;;0.41;100.00;100847.09;5151117;27;20043;-53
2022/11/29 06:33:34;;;;;;;4.28;2.25;;;;;;;0.50;100.00;100845.56;5150865;27;20049;-51
2022/11/29 06:36:09;;;;;;;;;;;;;;;0.61;100.00;100855.38;5151317;27;20050;-55
2022/11/29 06:38:35;;;;;;;7.15;3.03;;;;;;;0.62;100.00;100858.88;5151201;27;20528;-50
2022/11/29 06:41:02;;;;;;;4.30;2.40;;;;;;;0.81;100.00;100851.19;5151174;27;20081;-55
2022/11/29 06:43:29;;;;;;;6.25;2.58;;;;;;;0.77;100.00;100880.59;5151156;27;20046;-55
2022/11/29 06:46:02;;;;;;;4.22;2.35;;;;;;;0.67;100.00;100891.31;5151214;27;20457;-54
2022/11/29 06:48:37;;;;;;;3.85;2.45;;;;;;;0.67;100.00;100892.13;5150728;27;20421;-55
2022/11/29 06:51:15;;;;;;;7.57;3.13;;;;;;;0.66;100.00;100903.16;5150624;27;20051;-52
2022/11/29 06:53:48;;;;;;;4.18;1.85;;;;;;;0.43;100.00;100897.03;5151029;27;20137;-51
2022/11/29 06:56:23;;;;;;;4.32;2.35;;;;;;;0.58;100.00;100892.84;5150618;27;20187;-53
2022/11/29 06:59:02;;;;;;;4.88;2.97;;;;;;;0.65;100.00;100891.56;5151014;27;20058;-53
2022/11/29 07:01:39;;;;;;;3.15;2.47;;;;;;;0.74;100.00;100891.91;5154509;27;20058;-51
2022/11/29 07:04:24;;;;;;;9.82;2.58;;;;;;;0.46;100.00;100910.00;5154236;27;20047;-57
2022/11/29 07:06:51;;;;;;;3.75;2.42;;;;;;;0.88;100.00;100901.19;5154499;27;20074;-55
2022/11/29 07:09:21;;;;;;;3.63;2.30;;;;;;;0.54;100.00;100911.44;5153831;27;20057;-54
2022/11/29 07:11:48;;;;;;;2.30;1.70;;;;;;;0.42;100.00;100925.06;5153947;27;20050;-52
2022/11/29 07:14:15;;;;;;;4.63;2.00;;;;;;;0.89;100.00;100907.41;5153984;27;20042;-55
2022/11/29 07:16:50;;;;;;;3.28;2.38;;;;;;;0.64;100.00;100908.03;5154006;27;20054;-57
2022/11/29 07:19:23;;;;;;;6.82;2.47;;;;;;;0.68;100.00;100920.75;5153800;27;20503;-55
2022/11/29 07:21:59;;;;;;;4.10;2.43;;;;;;;0.86;100.00;100930.34;5153689;27;20051;-53
2022/11/29 07:24:47;;;;;;;2.65;2.10;;;;;;;0.77;100.00;100937.31;5154105;27;20050;-54
2022/11/29 07:27:20;;;;;;;3.78;2.45;;;;;;;0.80;100.00;100950.28;5153890;27;20129;-51
2022/11/29 07:30:02;;;;;;;2.78;2.10;;;;;;;0.75;100.00;100955.63;5153583;27;20093;-54
2022/11/29 07:32:39;;;;;;;6.05;1.95;;;;;;;0.62;100.00;100958.72;5153815;27;20568;-56
2022/11/29 07:35:14;;;;;;;7.53;2.60;;;;;;;0.87;100.00;100942.78;5153608;27;20047;-53
2022/11/29 07:38:04;;;;;;;2.95;1.85;;;;;;;0.56;100.00;100960.56;5153681;27;20569;-52
2022/11/29 07:40:39;;;;;;;6.22;2.42;;;;;;;1.03;100.00;100951.81;5153536;27;20046;-55
2022/11/29 07:43:22;;;;;;;4.20;2.50;;;;;;;0.64;100.00;100967.41;5153676;27;20082;-51
2022/11/29 07:45:49;;;;;;;2.65;2.17;;;;;;;0.68;100.00;100963.13;5153562;27;20058;-52
2022/11/29 07:48:16;;;;;;;4.68;3.08;;;;;;;0.76;100.00;100956.44;5153466;27;20047;-50
2022/11/29 07:50:44;;;;;;;2.15;1.85;;;;;;;0.58;100.00;100960.31;5153672;27;20139;-51
2022/11/29 07:53:15;;;;;;;12.35;2.60;;;;;;;0.67;100.00;100964.19;5153410;27;20089;-51
2022/11/29 07:55:42;;;;;;;3.20;2.30;;;;;;;0.73;100.00;100949.66;5153639;27;20408;-51
2022/11/29 07:58:11;;;;;;;4.25;2.50;;;;;;;0.92;100.00;100952.81;5153316;27;20058;-52
2022/11/29 08:00:37;;;;;;;4.32;2.40;;;;;;;0.66;100.00;100966.06;5153577;27;20050;-52
2022/11/29 08:03:04;;;;;;;3.08;2.03;;;;;;;0.68;100.00;100963.13;5153237;27;20050;-51
2022/11/29 08:05:30;;;;;;;2.85;2.22;;;;;;;0.89;100.00;100956.03;5153286;27;20105;-52
2022/11/29 08:07:59;;;;;;;3.92;2.60;;;;;;;0.96;100.00;100972.00;5152889;27;20043;-51
2022/11/29 08:10:25;;;;;;;4.90;2.72;;;;;;;0.89;100.00;100983.84;5151869;27;20054;-51
2022/11/29 08:12:51;;;;;;;4.20;2.35;;;;;;;0.97;100.00;100970.94;5152806;27;20050;-52
2022/11/29 08:15:19;;;;;;;4.38;2.03;;;;;;;0.67;100.00;100966.91;5153263;27;20425;-53
2022/11/29 08:17:45;;;;;;;3.90;2.22;;;;;;;0.74;100.00;100959.41;5153301;27;20043;-52
2022/11/29 08:20:13;;;;;;;2.85;2.03;;;;;;;1.11;100.00;100956.75;5152878;27;20054;-52
2022/11/29 08:22:40;;;;;;;3.88;2.03;;;;;;;1.01;100.00;100977.47;5153034;27;20086;-52
2022/11/29 08:25:08;;;;;;;5.40;2.95;;;;;;;0.95;100.00;100984.69;5152649;27;20099;-50
2022/11/29 08:27:35;;;;;;;4.57;2.47;;;;;;;0.60;100.00;100994.09;5153100;27;20140;-52
2022/11/29 08:30:01;;;;;;;4.47;2.80;;;;;;;1.07;100.00;100971.84;5152534;27;20050;-53
2022/11/29 08:32:28;;;;;;;7.18;3.00;;;;;;;0.83;100.00;100995.66;5152731;27;20139;-53
2022/11/29 08:34:54;;;;;;;8.23;3.10;;;;;;;0.94;100.00;100985.78;5152515;27;20053;-52
2022/11/29 08:37:20;;;;;;;7.20;2.83;;;;;;;1.39;100.00;100984.50;5152617;27;20137;-54
2022/11/29 08:39:47;;;;;;;5.43;3.10;;;;;;;1.27;100.00;101008.22;5152435;27;20486;-50
2022/11/29 08:42:14;;;;;;;8.60;3.45;;;;;;;1.14;100.00;101015.66;5152606;27;20078;-54
2022/11/29 08:44:40;;;;;;;8.27;3.03;;;;;;;1.24;100.00;101017.66;5152362;27;20099;-53
2022/11/29 08:50:03;;;;;;;5.20;2.50;;;;;;;0.94;100.00;101037.91;5153224;27;20961;-50
2022/11/29 08:55:14;;;;;;;3.03;1.77;;;;;;;0.99;100.00;101018.22;5152648;27;20111;-51
2022/11/29 08:57:41;;;;;;;4.47;2.47;;;;;;;1.01;100.00;101018.78;5152369;27;20054;-50
2022/11/29 09:00:09;;;;;;;5.35;2.63;;;;;;;1.23;100.00;101016.00;5152217;27;20047;-53
2022/11/29 09:02:36;;;;;;;6.00;3.38;;;;;;;1.28;100.00;101013.34;5152408;27;20485;-51
2022/11/29 09:05:02;;;;;;;5.50;2.92;;;;;;;1.15;100.00;101038.09;5152123;27;20057;-55
2022/11/29 09:07:29;;;;;;;7.22;2.63;;;;;;;1.28;100.00;101040.38;5152576;27;20304;-53
2022/11/29 09:09:55;;;;;;;4.85;2.67;;;;;;;1.01;100.00;101048.50;5151879;27;20054;-51
2022/11/29 09:12:21;;;;;;;5.35;2.67;;;;;;;0.79;100.00;101042.31;5152180;27;20092;-56
2022/11/29 09:14:48;;;;;;;3.70;2.50;;;;;;;1.09;100.00;101034.53;5151947;27;20525;-52
2022/11/29 09:17:15;;;;;;;6.03;2.90;;;;;;;1.18;100.00;101033.00;5152296;27;20134;-53
2022/11/29 09:19:41;;;;;;;6.15;2.97;;;;;;;1.06;100.00;101031.50;5151932;27;20050;-55
2022/11/29 09:22:07;;;;;;;4.10;2.60;;;;;;;1.10;100.00;101038.88;5151844;27;20046;-54
2022/11/29 09:24:33;;;;;;;5.78;2.25;;;;;;;1.06;100.00;101037.72;5151809;27;20375;-52
2022/11/29 09:27:00;;;;;;;6.95;2.72;;;;;;;1.00;100.00;101037.94;5151931;27;20051;-52
2022/11/29 09:29:26;;;;;;;8.80;2.88;;;;;;;1.09;100.00;101022.91;5152194;27;20047;-53
2022/11/29 09:31:53;;;;;;;10.10;2.83;;;;;;;1.16;100.00;101013.50;5151764;27;20057;-51
2022/11/29 09:34:19;;;;;;;5.03;3.08;;;;;;;1.37;100.00;101016.41;5151833;27;20554;-52
2022/11/29 09:36:47;;;;;;;5.25;2.78;;;;;;;1.00;100.00;101022.56;5151494;27;20195;-52
2022/11/29 09:39:13;;;;;;;5.15;2.85;;;;;;;1.23;100.00;101018.69;5151662;27;20569;-53
2022/11/29 09:42:02;;;;;;;7.25;2.83;;;;;;;0.87;100.00;101031.09;5151758;27;20050;-51
2022/11/29 09:44:40;;;;;;;4.13;2.30;;;;;;;0.81;100.00;101022.09;5152028;27;20461;-51
2022/11/29 09:47:20;;;;;;;4.53;2.50;;;;;;;0.90;100.00;101009.78;5151527;27;20058;-54
2022/11/29 09:49:56;;;;;;;3.05;2.20;;;;;;;1.06;100.00;101002.63;5151564;27;20058;-51
2022/11/29 09:52:33;;;;;;;6.47;2.10;;;;;;;0.99;100.00;101004.72;5151724;27;20435;-56
2022/11/29 09:55:09;;;;;;;4.05;2.33;;;;;;;0.80;100.00;101009.69;5151371;27;20228;-56
2022/11/29 09:57:37;;;;;;;5.07;2.72;;;;;;;1.04;100.00;101001.28;5151571;27;20071;-51
2022/11/29 10:00:10;;;;;;;6.07;3.72;;;;;;;0.71;100.00;101005.81;5151295;27;20070;-52
2022/11/29 10:02:44;;;;;;;5.78;2.67;;;;;;;1.08;100.00;100983.47;5151198;27;20133;-52
2022/11/29 10:05:16;;;;;;;6.13;3.25;;;;;;;1.05;100.00;100990.19;5151351;27;20099;-54
2022/11/29 10:07:47;;;;;;;8.23;2.63;;;;;;;1.13;100.00;100988.91;5151209;27;20576;-51
2022/11/29 10:10:18;;;;;;;5.57;3.38;;;;;;;0.89;100.00;100999.22;5151389;27;20080;-54
2022/11/29 10:12:49;;;;;;;6.63;2.63;;;;;;;1.02;100.00;100998.00;5151204;27;20095;-53
2022/11/29 10:15:21;;;;;;;4.43;2.78;;;;;;;1.11;100.00;100993.75;5151630;27;20042;-51
2022/11/29 10:17:54;;;;;;;5.35;3.22;;;;;;;1.16;100.00;101001.91;5150922;27;20053;-53
2022/11/29 10:20:23;;;;;;;7.57;2.70;;;;;;;0.99;100.00;101009.31;5151424;27;20429;-55
2022/11/29 10:22:54;;;;;;;7.38;2.88;;;;;;;1.00;100.00;101000.13;5151087;27;20141;-55
2022/11/29 10:25:24;;;;;;;5.20;3.22;;;;;;;1.15;100.00;100989.47;5150954;27;20572;-52
2022/11/29 10:27:51;;;;;;;6.18;3.75;;;;;;;1.24;100.00;100996.03;5151339;27;20529;-52
2022/11/29 10:30:18;;;;;;;6.35;3.15;;;;;;;1.28;100.00;100999.84;5151061;27;20055;-52
2022/11/29 10:32:48;;;;;;;8.20;4.57;;;;;;;1.14;100.00;101009.47;5151105;27;20050;-54
2022/11/29 10:35:17;;;;;;;8.35;4.07;;;;;;;1.26;100.00;101015.50;5153520;27;20046;-54
2022/11/29 10:37:44;;;;;;;8.65;4.18;;;;;;;1.02;100.00;101006.91;5154958;27;20050;-52
2022/11/29 10:40:14;;;;;;;5.78;3.35;;;;;;;1.14;100.00;101006.75;5154599;27;20050;-56
2022/11/29 10:42:52;;;;;;;8.82;3.83;;;;;;;1.33;100.00;101002.59;5154894;27;20091;-56
2022/11/29 10:45:26;;;;;;;6.78;4.30;;;;;;;1.59;100.00;101010.88;5154447;27;20146;-53
2022/11/29 10:47:54;;;;;;;7.63;3.35;;;;;;;1.16;100.00;101024.31;5154427;27;20505;-51
2022/11/29 10:50:24;;;;;;;8.50;4.07;;;;;;;0.96;100.00;101034.13;5154532;27;20066;-52
2022/11/29 10:52:50;;;;;;;7.43;3.47;;;;;;;0.73;100.00;101032.53;5154283;27;20048;-51
2022/11/29 10:55:17;;;;;;;7.18;3.78;;;;;;;0.77;100.00;101029.09;5154423;27;20133;-56
2022/11/29 10:58:10;;;;;;;7.25;3.22;;;;;;;0.82;100.00;101020.22;5154207;27;20082;-53
2022/11/29 11:00:50;;;;;;;8.95;4.38;;;;;;;0.75;100.00;101016.91;5154280;27;20082;-52
2022/11/29 11:03:23;;;;;;;9.73;4.28;;;;;;;0.74;100.00;101016.09;5154246;27;20047;-50
2022/11/29 11:05:59;;;;;;;8.00;3.65;;;;;;;0.75;100.00;101006.91;5153969;27;20135;-50
2022/11/29 11:08:26;;;;;;;7.22;3.60;;;;;;;0.65;100.00;101006.81;5154679;27;20091;-50
2022/11/29 11:10:54;;;;;;;7.30;3.53;;;;;;;0.86;100.00;101007.84;5154077;27;20059;-55
2022/11/29 11:13:22;;;;;;;6.40;4.00;;;;;;;0.85;100.00;101007.03;5154510;27;20047;-49
2022/11/29 11:15:49;;;;;;;10.23;4.50;;;;;;;0.70;100.00;100998.78;5153803;27;20049;-52
2022/11/29 11:18:20;;;;;;;7.80;4.22;;;;;;;0.97;100.00;100985.28;5154334;27;20106;-51
2022/11/29 11:20:53;;;;;;;21.25;5.38;;;;;;;0.65;100.00;100994.13;5153826;27;20054;-54
2022/11/29 11:23:25;;;;;;;7.85;4.57;;;;;;;0.75;100.00;100996.13;5153983;27;20070;-53
2022/11/29 11:25:57;;;;;;;5.82;3.90;;;;;;;0.44;100.00;101005.78;5153844;27;20055;-52
2022/11/29 11:28:27;;;;;;;11.45;5.85;;;;;;;0.78;100.00;100992.91;5153928;27;20620;-50
2022/11/29 11:30:58;;;;;;;6.40;4.25;;;;;;;0.69;100.00;100995.25;5153768;27;20055;-51
2022/11/29 11:33:27;;;;;;;8.10;4.22;;;;;;;0.77;100.00;100995.84;5153485;27;20046;-53
2022/11/29 11:36:02;;;;;;;12.32;4.55;;;;;;;0.63;100.00;101008.94;5153785;27;20046;-51
2022/11/29 11:38:30;;;;;;;7.60;4.18;;;;;;;0.92;100.00;101007.63;5153563;27;20046;-50
2022/11/29 11:41:04;;;;;;;9.85;5.18;;;;;;;1.15;100.00;101000.28;5153829;27;20413;-53
2022/11/29 11:43:32;;;;;;;7.30;4.30;;;;;;;1.17;100.00;101014.34;5153613;27;20046;-51
2022/11/29 11:45:58;;;;;;;8.95;5.13;;;;;;;1.16;100.00;101023.50;5153387;27;20129;-52
2022/11/29 11:48:24;;;;;;;10.57;5.05;;;;;;;1.37;100.00;101041.53;5153446;27;20394;-50
2022/11/29 11:50:53;;;;;;;8.48;5.07;;;;;;;0.91;100.00;101053.81;5153027;27;20051;-54
2022/11/29 11:53:22;;;;;;;7.72;4.28;;;;;;;1.03;100.00;101061.75;5153281;27;20046;-48
2022/11/29 11:55:58;;;;;;;8.05;4.68;;;;;;;1.15;100.00;101048.91;5153028;27;20497;-47
2022/11/29 11:58:27;;;;;;;8.98;5.03;;;;;;;1.14;100.00;101055.38;5153413;27;20130;-48
2022/11/29 12:00:56;;;;;;;6.13;3.72;;;;;;;0.91;100.00;101076.22;5152971;27;20046;-48